createdAt,value
2019-02-27T00:01:53.657Z,18.63
2019-02-27T00:06:55.602Z,18.07
2019-02-27T00:11:57.192Z,17.90
2019-02-27T00:16:58.881Z,18.47
2019-02-27T00:22:00.485Z,18.13
2019-02-27T00:27:02.078Z,19.33
2019-02-27T00:32:04.029Z,18.27
2019-02-27T00:37:05.598Z,19.77
2019-02-27T00:42:07.186Z,19.53
2019-02-27T00:47:08.808Z,20.27
2019-02-27T00:52:10.799Z,18.87
2019-02-27T00:57:12.495Z,19.37
2019-02-27T01:02:14.383Z,19.83
2019-02-27T01:07:20.212Z,19.17
2019-02-27T01:12:19.867Z,20.17
2019-02-27T01:17:23.855Z,19.33
2019-02-27T01:22:24.939Z,19.20
2019-02-27T01:27:26.469Z,18.83
2019-02-27T01:32:28.892Z,23.20
2019-02-27T01:37:32.342Z,21.10
2019-02-27T01:42:34.202Z,20.70
2019-02-27T01:47:36.539Z,20.87
2019-02-27T01:52:38.305Z,20.80
2019-02-27T01:57:39.891Z,21.00
2019-02-27T02:02:41.459Z,21.83
2019-02-27T02:07:45.527Z,22.33
2019-02-27T02:12:53.384Z,21.97
2019-02-27T02:18:43.171Z,21.27
2019-02-27T02:24:21.685Z,20.13
2019-02-27T02:29:52.995Z,20.43
2019-02-27T02:35:32.384Z,20.10
2019-02-27T02:40:56.947Z,20.47
2019-02-27T02:46:13.221Z,19.93
2019-02-27T02:51:32.055Z,19.40
2019-02-27T02:56:39.068Z,20.67
2019-02-27T03:01:51.908Z,20.17
2019-02-27T03:07:44.496Z,20.33
2019-02-27T03:13:20.323Z,19.57
2019-02-27T03:19:18.965Z,19.47
2019-02-27T03:25:14.918Z,20.20
2019-02-27T03:30:52.078Z,20.30
2019-02-27T03:36:16.350Z,20.47
2019-02-27T03:41:58.513Z,20.93
2019-02-27T03:47:16.729Z,19.60
2019-02-27T03:52:56.207Z,17.77
2019-02-27T03:58:38.463Z,20.63
2019-02-27T04:04:13.193Z,18.93
2019-02-27T04:09:18.532Z,18.50
2019-02-27T04:14:40.081Z,19.80
2019-02-27T04:19:40.640Z,20.23
2019-02-27T04:24:42.435Z,19.43
2019-02-27T04:29:44.080Z,18.97
2019-02-27T04:34:45.633Z,19.23
2019-02-27T04:39:47.176Z,19.63
2019-02-27T04:44:48.754Z,19.43
2019-02-27T04:49:50.323Z,18.10
2019-02-27T04:54:52.109Z,20.30
2019-02-27T04:59:53.694Z,18.97
2019-02-27T05:04:55.724Z,19.17
2019-02-27T05:09:57.687Z,19.70
2019-02-27T05:15:00.944Z,20.53
2019-02-27T05:20:03.091Z,20.33
2019-02-27T05:25:04.780Z,19.50
2019-02-27T05:30:06.692Z,19.50
2019-02-27T05:35:08.288Z,20.10
2019-02-27T05:40:10.307Z,20.10
2019-02-27T05:45:11.887Z,20.20
2019-02-27T05:50:13.796Z,19.97
2019-02-27T05:55:15.380Z,19.57
2019-02-27T06:00:17.030Z,19.30
2019-02-27T06:05:18.801Z,19.90
2019-02-27T06:10:21.137Z,17.93
2019-02-27T06:15:26.045Z,19.53
2019-02-27T06:20:27.602Z,19.97
2019-02-27T06:25:29.395Z,19.57
2019-02-27T06:30:31.405Z,19.40
2019-02-27T06:35:36.577Z,18.97
2019-02-27T06:40:42.120Z,17.50
2019-02-27T06:45:45.482Z,19.33
2019-02-27T06:50:45.261Z,24.73
2019-02-27T06:55:46.994Z,21.43
2019-02-27T07:00:48.953Z,21.77
2019-02-27T07:05:50.562Z,21.73
2019-02-27T07:10:52.129Z,21.10
2019-02-27T07:15:55.579Z,18.63
2019-02-27T07:20:58.424Z,20.63
2019-02-27T07:26:00.891Z,20.37
2019-02-27T07:31:02.538Z,19.47
2019-02-27T07:36:04.602Z,19.50
2019-02-27T07:41:06.224Z,21.13
2019-02-27T07:46:07.832Z,21.43
2019-02-27T07:51:09.426Z,22.30
2019-02-27T07:56:11.485Z,22.50
2019-02-27T08:01:13.455Z,22.93
2019-02-27T08:06:15.271Z,23.20
2019-02-27T08:11:16.842Z,23.90
2019-02-27T08:16:18.828Z,23.90
2019-02-27T08:21:20.426Z,23.93
2019-02-27T08:26:22.454Z,24.27
2019-02-27T08:31:27.890Z,22.70
2019-02-27T08:36:28.014Z,24.10
2019-02-27T08:41:31.465Z,24.13
2019-02-27T08:46:34.021Z,23.13
2019-02-27T08:51:39.788Z,22.77
2019-02-27T08:56:40.787Z,22.50
2019-02-27T09:01:42.485Z,22.90
2019-02-27T09:06:44.255Z,21.33
2019-02-27T09:11:45.830Z,19.77
2019-02-27T09:16:47.453Z,18.20
2019-02-27T09:21:49.062Z,17.90
2019-02-27T09:26:51.034Z,16.47
2019-02-27T09:31:52.699Z,17.07
2019-02-27T09:36:54.368Z,16.83
2019-02-27T09:41:55.947Z,15.17
2019-02-27T09:46:57.485Z,14.97
2019-02-27T09:51:59.086Z,16.03
2019-02-27T09:57:02.251Z,13.90
2019-02-27T10:02:06.362Z,13.10
2019-02-27T10:07:08.628Z,13.67
2019-02-27T10:12:11.311Z,12.57
2019-02-27T10:17:12.967Z,12.33
2019-02-27T10:22:17.889Z,12.00
2019-02-27T10:27:18.096Z,12.00
2019-02-27T10:32:20.061Z,12.78
2019-02-27T10:37:21.800Z,11.43
2019-02-27T10:42:23.433Z,11.57
2019-02-27T10:47:25.244Z,11.83
2019-02-27T10:52:27.206Z,12.28
2019-02-27T10:57:32.538Z,12.60
2019-02-27T11:02:32.679Z,12.47
2019-02-27T11:07:34.252Z,12.90
2019-02-27T11:12:35.915Z,13.00
2019-02-27T11:17:37.632Z,13.20
2019-02-27T11:22:39.207Z,13.60
2019-02-27T11:27:40.822Z,12.60
2019-02-27T11:32:42.405Z,13.18
2019-02-27T11:37:46.630Z,13.35
2019-02-27T11:42:47.517Z,14.63
2019-02-27T11:47:49.696Z,13.20
2019-02-27T11:52:51.393Z,14.05
2019-02-27T11:57:53.007Z,13.95
2019-02-27T12:02:54.994Z,15.25
2019-02-27T12:07:56.607Z,15.25
2019-02-27T12:13:00.727Z,13.93
2019-02-27T12:18:02.094Z,15.23
2019-02-27T12:23:03.869Z,15.28
2019-02-27T12:28:05.514Z,14.58
2019-02-27T12:33:07.122Z,16.10
2019-02-27T12:38:08.686Z,16.42
2019-02-27T12:43:10.935Z,16.27
2019-02-27T12:48:13.350Z,16.77
2019-02-27T12:53:15.001Z,16.55
2019-02-27T12:58:17.053Z,16.15
2019-02-27T13:03:18.694Z,16.25
2019-02-27T13:08:20.289Z,16.75
2019-02-27T13:13:23.277Z,18.00
2019-02-27T13:18:25.455Z,17.45
2019-02-27T13:23:27.032Z,16.15
2019-02-27T13:28:28.588Z,16.17
2019-02-27T13:33:30.131Z,17.00
2019-02-27T13:38:31.725Z,16.42
2019-02-27T13:43:33.305Z,16.32
2019-02-27T13:48:37.365Z,17.12
2019-02-27T13:53:38.353Z,15.90
2019-02-27T13:58:39.987Z,17.07
2019-02-27T14:03:41.589Z,17.57
2019-02-27T14:08:43.852Z,17.05
2019-02-27T14:13:45.580Z,17.92
2019-02-27T14:18:49.790Z,18.48
2019-02-27T14:23:50.708Z,17.92
2019-02-27T14:28:55.120Z,18.92
2019-02-27T14:33:56.157Z,19.32
2019-02-27T14:38:58.145Z,18.12
2019-02-27T14:44:02.871Z,20.08
2019-02-27T14:49:04.491Z,20.20
2019-02-27T14:54:06.107Z,19.98
2019-02-27T14:59:07.953Z,20.85
2019-02-27T15:04:09.586Z,20.80
2019-02-27T15:09:11.188Z,21.45
2019-02-27T15:14:12.846Z,20.80
2019-02-27T15:19:14.462Z,21.20
2019-02-27T15:24:16.127Z,19.42
2019-02-27T15:29:17.723Z,20.62
2019-02-27T15:34:19.340Z,20.23
2019-02-27T15:39:21.335Z,20.72
2019-02-27T15:44:22.898Z,22.82
2019-02-27T15:49:24.473Z,22.77
2019-02-27T15:54:26.090Z,22.48
2019-02-27T16:04:44.435Z,24.27
2019-02-27T16:09:46.383Z,25.15
2019-02-27T16:14:48.358Z,24.98
2019-02-27T16:19:50.447Z,25.75
2019-02-27T16:24:52.153Z,26.30
2019-02-27T16:29:54.107Z,25.32
2019-02-27T16:34:57.303Z,25.55
2019-02-27T16:39:59.048Z,25.25
2019-02-27T16:45:00.808Z,25.37
2019-02-27T16:50:02.354Z,26.17
2019-02-27T16:55:04.648Z,26.85
2019-02-27T17:00:07.088Z,27.58
2019-02-27T17:05:09.517Z,26.45
2019-02-27T17:10:14.966Z,27.98
2019-02-27T17:15:17.850Z,27.07
2019-02-27T17:20:19.574Z,27.25
2019-02-27T17:25:21.161Z,28.62
2019-02-27T17:30:27.661Z,30.23
2019-02-27T17:35:29.192Z,29.65
2019-02-27T17:40:30.747Z,28.20
2019-02-27T17:45:32.406Z,29.15
2019-02-27T17:50:33.933Z,25.85
2019-02-27T17:55:38.231Z,26.07
2019-02-27T18:00:39.249Z,27.07
2019-02-27T18:05:41.189Z,27.97
2019-02-27T18:10:42.927Z,28.30
2019-02-27T18:15:44.729Z,28.13
2019-02-27T18:20:46.976Z,28.23
2019-02-27T18:25:48.929Z,27.50
2019-02-27T18:30:53.209Z,26.13
2019-02-27T18:35:54.596Z,27.63
2019-02-27T18:40:56.628Z,26.73
2019-02-27T18:45:58.972Z,27.83
2019-02-27T18:51:01.289Z,27.30
2019-02-27T18:56:03.479Z,29.83
2019-02-27T19:01:09.520Z,27.67
2019-02-27T19:06:12.015Z,30.37
2019-02-27T19:11:12.922Z,30.37
2019-02-27T19:16:17.455Z,29.03
2019-02-27T19:21:19.907Z,29.70
2019-02-27T19:26:22.226Z,33.23
2019-02-27T19:31:24.113Z,31.77
2019-02-27T19:36:30.519Z,33.60
2019-02-27T19:41:29.447Z,31.93
2019-02-27T19:46:31.482Z,33.80
2019-02-27T19:51:33.192Z,32.80
2019-02-27T19:56:35.506Z,31.73
2019-02-27T20:01:40.466Z,34.23
2019-02-27T20:06:41.915Z,33.80
2019-02-27T20:11:43.553Z,32.17
2019-02-27T20:16:45.155Z,31.73
2019-02-27T20:21:50.554Z,34.00
2019-02-27T20:26:54.685Z,33.83
2019-02-27T20:31:58.781Z,36.57
2019-02-27T20:37:03.305Z,35.00
2019-02-27T20:42:05.740Z,34.67
2019-02-27T20:47:07.589Z,36.03
2019-02-27T20:52:14.539Z,34.73
2019-02-27T20:57:12.823Z,34.93
2019-02-27T21:02:14.763Z,32.80
2019-02-27T21:07:22.262Z,34.87
2019-02-27T21:12:19.859Z,36.23
2019-02-27T21:17:22.375Z,35.10
2019-02-27T21:22:28.389Z,36.07
2019-02-27T21:27:32.934Z,37.57
2019-02-27T21:32:36.167Z,38.60
2019-02-27T21:37:37.850Z,38.27
2019-02-27T21:42:39.547Z,41.60
2019-02-27T21:47:41.271Z,40.17
2019-02-27T21:52:42.870Z,40.63
2019-02-27T21:57:44.561Z,40.60
2019-02-27T22:02:46.223Z,39.73
2019-02-27T22:07:47.904Z,40.27
2019-02-27T22:12:49.571Z,38.47
2019-02-27T22:17:51.180Z,40.37
2019-02-27T22:22:52.753Z,40.03
2019-02-27T22:27:54.398Z,40.27
2019-02-27T22:32:56.322Z,40.50
2019-02-27T22:37:57.943Z,41.33
2019-02-27T22:42:59.517Z,40.53
2019-02-27T22:48:01.162Z,41.23
2019-02-27T22:53:02.824Z,41.03
2019-02-27T22:58:04.765Z,42.93
2019-02-27T23:03:06.407Z,43.57
2019-02-27T23:08:07.945Z,42.43
2019-02-27T23:13:12.438Z,42.10
2019-02-27T23:18:13.578Z,41.83
2019-02-27T23:23:15.156Z,40.13
2019-02-27T23:28:16.802Z,39.33
2019-02-27T23:33:18.356Z,39.40
2019-02-27T23:38:20.007Z,37.77
2019-02-27T23:43:22.208Z,38.20
2019-02-27T23:48:24.180Z,40.40
2019-02-27T23:53:27.140Z,41.07
2019-02-27T23:58:29.654Z,39.47
